Time;durP1;ratioP1;P1;durP2;ratioP2;P2;SDS_P1;SDS_P2;PMS_P1;PMS_P2;Temp;Humidity;BMP_temperature;BMP_pressure;BME280_temperature;BME280_humidity;BME280_pressure;Samples;Min_cycle;Max_cycle;Signal;HPM_P1;HPM_P2
2021/06/15 00:00:53;;;;;;;6.05;3.50;;;;;;;15.81;63.09;100888.91;4932145;28;98021;-78
2021/06/15 00:03:19;;;;;;;4.88;3.60;;;;;;;15.91;62.90;100900.44;4920495;28;98603;-78
2021/06/15 00:05:45;;;;;;;4.88;3.45;;;;;;;15.76;63.79;100891.66;4920007;28;99423;-78
2021/06/15 00:08:11;;;;;;;6.18;3.67;;;;;;;15.82;64.08;100888.59;4888384;28;97967;-75
2021/06/15 00:10:37;;;;;;;5.30;3.65;;;;;;;15.71;63.77;100884.41;4940170;28;99186;-78
2021/06/15 00:13:03;;;;;;;5.75;3.58;;;;;;;15.34;64.96;100887.81;4922520;28;125855;-75
2021/06/15 00:15:29;;;;;;;5.47;3.42;;;;;;;15.54;64.78;100889.47;4937797;28;116741;-75
2021/06/15 00:17:56;;;;;;;5.25;3.38;;;;;;;15.27;65.32;100890.06;4920503;28;97808;-75
2021/06/15 00:20:22;;;;;;;5.47;3.90;;;;;;;15.13;66.45;100882.59;4921731;28;112274;-78
2021/06/15 00:22:48;;;;;;;4.97;3.38;;;;;;;15.47;65.49;100881.66;4903446;28;99644;-75
2021/06/15 00:25:15;;;;;;;4.20;3.80;;;;;;;15.31;66.17;100878.31;4903273;28;110579;-77
2021/06/15 00:27:42;;;;;;;5.05;3.80;;;;;;;15.41;66.30;100880.94;4888076;28;97932;-74
2021/06/15 00:30:10;;;;;;;6.65;3.78;;;;;;;15.13;66.05;100874.47;4921672;28;98751;-77
2021/06/15 00:32:36;;;;;;;6.10;3.78;;;;;;;15.19;66.71;100872.50;4904115;28;98723;-78
2021/06/15 00:35:02;;;;;;;5.72;4.03;;;;;;;15.02;67.09;100880.28;4920052;28;128031;-77
2021/06/15 00:37:28;;;;;;;5.90;3.83;;;;;;;15.29;66.89;100875.09;4903587;28;104495;-74
2021/06/15 00:39:54;;;;;;;5.75;4.10;;;;;;;15.36;66.09;100880.97;4920072;28;127326;-77
2021/06/15 00:42:22;;;;;;;6.50;4.13;;;;;;;15.21;66.65;100883.88;4903855;28;128377;-75
2021/06/15 00:44:49;;;;;;;4.68;3.80;;;;;;;15.20;66.37;100882.25;4919251;28;98686;-77
2021/06/15 00:47:15;;;;;;;5.25;4.05;;;;;;;15.47;66.44;100887.91;4918241;28;97905;-77
2021/06/15 00:49:41;;;;;;;6.72;4.45;;;;;;;15.45;65.80;100879.25;4902529;28;127207;-77
2021/06/15 00:52:07;;;;;;;5.28;4.25;;;;;;;15.39;65.87;100879.59;4903036;28;107295;-75
2021/06/15 00:54:34;;;;;;;4.97;4.07;;;;;;;15.43;65.84;100884.16;4935027;28;98150;-75
2021/06/15 00:57:00;;;;;;;5.28;4.13;;;;;;;15.44;65.48;100876.81;4921552;28;103766;-77
2021/06/15 00:59:26;;;;;;;7.00;4.28;;;;;;;15.27;65.94;100871.03;4919055;28;98934;-74
2021/06/15 01:01:52;;;;;;;5.22;4.20;;;;;;;14.94;67.19;100882.53;4920531;28;126688;-77
2021/06/15 01:04:18;;;;;;;5.40;4.65;;;;;;;14.92;67.56;100876.56;4934954;28;127556;-77
2021/06/15 01:07:07;;;;;;;5.18;4.07;;;;;;;14.80;67.73;100870.69;4920464;28;97979;-74
2021/06/15 01:09:56;;;;;;;6.95;4.85;;;;;;;14.95;67.08;100875.19;4934096;28;99197;-77
2021/06/15 01:13:14;;;;;;;7.55;4.28;;;;;;;14.69;68.62;100880.03;4935718;28;101025;-74
2021/06/15 01:15:47;;;;;;;5.68;4.13;;;;;;;14.78;67.51;100877.53;4935200;28;98108;-74
2021/06/15 01:18:17;;;;;;;5.72;4.28;;;;;;;14.77;67.81;100873.97;4904021;28;98172;-74
2021/06/15 01:21:02;;;;;;;5.32;4.25;;;;;;;14.73;67.74;100871.03;4919099;28;111379;-74
2021/06/15 01:23:29;;;;;;;5.55;4.60;;;;;;;14.68;67.88;100868.38;4919733;28;98913;-74
2021/06/15 01:26:16;;;;;;;6.25;4.43;;;;;;;14.81;67.96;100863.38;4938842;28;98472;-77
2021/06/15 01:29:01;;;;;;;6.00;4.60;;;;;;;14.78;67.69;100872.09;4920676;28;97860;-77
2021/06/15 01:31:31;;;;;;;6.40;4.60;;;;;;;14.45;68.67;100869.06;4936759;28;110315;-74
2021/06/15 01:34:04;;;;;;;6.50;4.72;;;;;;;14.39;69.27;100868.31;4921024;28;98565;-74
2021/06/15 01:36:37;;;;;;;6.53;4.47;;;;;;;14.45;68.38;100878.00;4888026;28;98192;-77
2021/06/15 01:39:17;;;;;;;5.40;4.40;;;;;;;14.57;67.58;100864.13;4903175;28;98237;-77
2021/06/15 01:41:56;;;;;;;6.55;4.47;;;;;;;14.39;68.07;100865.59;4903417;28;110646;-78
2021/06/15 01:44:22;;;;;;;5.25;4.50;;;;;;;14.53;68.08;100870.41;4908585;28;114201;-76
2021/06/15 01:47:10;;;;;;;5.65;4.57;;;;;;;14.53;68.52;100875.81;4940814;28;126701;-74
2021/06/15 01:49:52;;;;;;;6.45;4.35;;;;;;;14.57;68.11;100874.16;4926771;28;98068;-74
2021/06/15 01:52:18;;;;;;;8.13;5.05;;;;;;;14.25;68.98;100876.25;4925684;28;98072;-77
2021/06/15 01:54:45;;;;;;;7.00;4.72;;;;;;;14.10;69.60;100878.25;4925169;28;98351;-74
2021/06/15 01:57:12;;;;;;;5.45;4.78;;;;;;;14.28;69.19;100876.81;4942457;28;98947;-75
2021/06/15 01:59:38;;;;;;;5.35;4.75;;;;;;;14.37;69.15;100870.47;4933174;28;101281;-77
2021/06/15 02:02:04;;;;;;;5.85;4.50;;;;;;;14.18;69.42;100880.38;4889555;28;109701;-77
2021/06/15 02:04:33;;;;;;;6.70;4.32;;;;;;;13.99;69.73;100875.63;4905346;28;114360;-78
2021/06/15 02:07:00;;;;;;;6.15;4.45;;;;;;;14.10;69.51;100872.84;4890319;28;98276;-75
2021/06/15 02:09:26;;;;;;;5.85;4.40;;;;;;;14.27;69.19;100869.78;4906001;28;97834;-74
2021/06/15 02:11:52;;;;;;;5.13;4.45;;;;;;;14.04;69.27;100876.69;4905979;28;100628;-78
2021/06/15 02:14:22;;;;;;;5.90;4.47;;;;;;;14.10;69.00;100873.66;4904908;28;127937;-78
2021/06/15 02:16:50;;;;;;;7.15;4.85;;;;;;;13.90;69.08;100871.06;4921283;28;98234;-75
2021/06/15 02:19:20;;;;;;;5.47;4.55;;;;;;;13.82;69.18;100872.47;4921973;28;98024;-75
2021/06/15 02:21:56;;;;;;;6.05;4.80;;;;;;;13.82;69.96;100877.88;4890142;28;98780;-78
2021/06/15 02:24:31;;;;;;;6.63;4.60;;;;;;;13.72;69.78;100872.53;4890384;28;99633;-74
2021/06/15 02:26:57;;;;;;;6.75;4.82;;;;;;;13.73;69.96;100877.66;4891554;28;98288;-78
2021/06/15 02:29:24;;;;;;;6.60;4.68;;;;;;;13.66;70.02;100870.91;4923928;28;106389;-80
2021/06/15 02:31:56;;;;;;;6.47;4.50;;;;;;;13.58;70.64;100880.44;4891292;28;98335;-75
2021/06/15 02:34:22;;;;;;;5.28;4.32;;;;;;;13.80;70.27;100871.13;4890138;28;104977;-79
2021/06/15 02:36:48;;;;;;;6.85;4.47;;;;;;;13.91;69.51;100880.81;4905383;28;98077;-79
2021/06/15 02:39:22;;;;;;;6.70;4.15;;;;;;;13.60;69.71;100880.97;4889451;28;102667;-78
2021/06/15 02:41:48;;;;;;;6.95;4.70;;;;;;;13.79;69.21;100877.63;4905868;28;99171;-79
2021/06/15 02:44:18;;;;;;;6.60;4.88;;;;;;;13.72;69.50;100877.94;4904900;28;111778;-79
2021/06/15 02:46:46;;;;;;;7.88;4.95;;;;;;;13.46;70.63;100877.22;4923931;28;98388;-75
2021/06/15 02:49:18;;;;;;;6.55;4.93;;;;;;;13.61;70.75;100882.59;4925412;28;97972;-79
2021/06/15 02:52:17;;;;;;;6.63;4.80;;;;;;;13.71;70.44;100889.84;4924830;28;116584;-75
2021/06/15 02:54:53;;;;;;;7.25;5.03;;;;;;;13.52;69.72;100886.97;4919214;28;106715;-80
2021/06/15 02:57:19;;;;;;;6.28;4.80;;;;;;;13.42;70.46;100889.69;4906543;28;112226;-79
2021/06/15 02:59:45;;;;;;;7.32;5.20;;;;;;;13.34;70.53;100887.56;4904635;28;115806;-75
2021/06/15 03:02:11;;;;;;;7.72;5.32;;;;;;;13.57;69.92;100895.06;4905049;28;99541;-79
2021/06/15 03:04:37;;;;;;;9.40;5.03;;;;;;;13.49;70.02;100890.22;4920409;28;127000;-76
2021/06/15 03:07:04;;;;;;;7.05;5.13;;;;;;;13.33;70.71;100894.06;4888622;28;99577;-76
2021/06/15 03:09:30;;;;;;;6.00;4.97;;;;;;;13.27;70.37;100887.84;4888923;28;98158;-76
2021/06/15 03:12:07;;;;;;;8.52;5.43;;;;;;;13.26;70.65;100895.16;4903720;28;127175;-76
2021/06/15 03:14:33;;;;;;;8.65;5.22;;;;;;;13.21;70.99;100895.13;4888692;28;100743;-80
2021/06/15 03:17:03;;;;;;;7.53;5.25;;;;;;;13.18;70.85;100897.59;4888005;28;127456;-80
2021/06/15 03:19:56;;;;;;;7.47;4.72;;;;;;;13.11;71.21;100895.16;4889163;28;98472;-76
2021/06/15 03:22:26;;;;;;;7.03;5.28;;;;;;;13.08;71.17;100903.00;4905072;28;100234;-80
2021/06/15 03:25:04;;;;;;;7.10;5.47;;;;;;;13.22;70.58;100901.38;4905197;28;110788;-79
2021/06/15 03:28:10;;;;;;;7.53;5.00;;;;;;;13.07;71.25;100896.78;4920508;28;98459;-76
2021/06/15 03:30:36;;;;;;;7.63;5.35;;;;;;;13.29;70.73;100898.41;4903200;28;98134;-80
2021/06/15 03:33:06;;;;;;;6.68;5.22;;;;;;;13.49;70.71;100892.94;4888409;28;100968;-80
2021/06/15 03:35:33;;;;;;;7.28;4.95;;;;;;;13.49;70.02;100901.06;4904899;28;99265;-80
2021/06/15 03:38:02;;;;;;;6.82;5.20;;;;;;;13.36;70.28;100898.91;4904640;28;100084;-77
2021/06/15 03:40:30;;;;;;;9.75;5.75;;;;;;;13.29;71.05;100896.50;4904744;28;97879;-76
2021/06/15 03:42:56;;;;;;;7.75;5.65;;;;;;;13.40;70.67;100895.41;4888205;28;103569;-80
2021/06/15 03:45:26;;;;;;;8.10;5.10;;;;;;;13.74;70.00;100900.13;4888042;28;110316;-80
2021/06/15 03:47:52;;;;;;;7.47;5.35;;;;;;;13.90;69.52;100895.44;4905359;28;98136;-80
2021/06/15 03:50:18;;;;;;;7.00;5.43;;;;;;;13.92;69.41;100902.22;4889326;28;118222;-76
2021/06/15 03:52:44;;;;;;;6.63;5.30;;;;;;;14.15;68.70;100897.22;4940071;28;102455;-80
2021/06/15 03:55:11;;;;;;;7.78;5.88;;;;;;;14.30;68.37;100901.72;4907466;28;99641;-75
2021/06/15 03:57:43;;;;;;;7.40;5.53;;;;;;;14.22;68.23;100906.63;4923291;28;109935;-76
2021/06/15 04:00:13;;;;;;;6.97;5.18;;;;;;;14.42;68.22;100903.00;4908719;28;100182;-80
2021/06/15 04:02:41;;;;;;;5.63;4.90;;;;;;;14.51;68.60;100908.66;4939296;28;116815;-76
2021/06/15 04:05:08;;;;;;;8.20;4.95;;;;;;;14.44;68.36;100903.53;4907555;28;99141;-80
2021/06/15 04:07:34;;;;;;;7.30;5.10;;;;;;;14.35;68.23;100899.78;4938944;28;107911;-75
2021/06/15 04:10:00;;;;;;;6.65;5.38;;;;;;;14.32;68.85;100902.25;4922344;28;117824;-76
2021/06/15 04:12:26;;;;;;;6.43;5.30;;;;;;;14.44;68.59;100905.44;4923645;28;98584;-81
2021/06/15 04:14:52;;;;;;;8.30;5.78;;;;;;;14.22;69.13;100895.78;4912398;28;99093;-75
2021/06/15 04:17:22;;;;;;;6.10;5.50;;;;;;;14.23;68.68;100896.63;4904963;28;97852;-80
2021/06/15 04:19:49;;;;;;;7.82;6.20;;;;;;;14.12;69.56;100898.59;4924134;28;97905;-76
2021/06/15 04:22:16;;;;;;;8.18;5.78;;;;;;;14.45;68.94;100896.19;4907190;28;98955;-80
2021/06/15 04:24:51;;;;;;;7.57;5.70;;;;;;;14.53;68.41;100890.19;4888896;28;126308;-75
2021/06/15 04:27:22;;;;;;;7.35;5.80;;;;;;;14.76;67.40;100891.34;4905987;28;98435;-81
2021/06/15 04:29:49;;;;;;;8.43;5.82;;;;;;;14.69;67.62;100896.31;4923249;28;97953;-75
2021/06/15 04:32:18;;;;;;;8.23;5.82;;;;;;;14.63;68.10;100900.97;4940516;28;98959;-80
2021/06/15 04:34:49;;;;;;;8.75;5.90;;;;;;;14.83;67.42;100902.69;4905709;28;97940;-79
2021/06/15 04:37:15;;;;;;;7.88;6.10;;;;;;;15.01;67.23;100903.88;4900400;28;119523;-80
2021/06/15 04:39:55;;;;;;;6.95;5.97;;;;;;;15.16;66.99;100905.63;4896922;28;106252;-78
2021/06/15 04:42:53;;;;;;;7.40;6.05;;;;;;;15.19;66.09;100905.06;4884461;28;105763;-77
2021/06/15 04:45:35;;;;;;;8.57;5.88;;;;;;;15.25;67.09;100909.38;4899904;28;98839;-77
2021/06/15 04:48:11;;;;;;;10.37;5.93;;;;;;;15.42;67.34;100908.91;4901902;28;111179;-77
2021/06/15 04:50:38;;;;;;;9.85;5.95;;;;;;;15.59;66.25;100911.16;4903658;28;98358;-77
2021/06/15 04:53:05;;;;;;;6.93;5.60;;;;;;;15.77;66.20;100904.19;4919765;28;98930;-77
2021/06/15 04:55:37;;;;;;;9.25;5.78;;;;;;;15.64;66.89;100908.34;4935383;28;98827;-77
2021/06/15 04:58:04;;;;;;;8.63;5.73;;;;;;;15.94;65.17;100910.72;4903824;28;98392;-77
2021/06/15 05:00:30;;;;;;;7.10;5.40;;;;;;;15.80;65.87;100909.00;4936059;28;97970;-77
2021/06/15 05:02:57;;;;;;;6.15;5.43;;;;;;;15.80;65.59;100909.00;4899777;28;98728;-79
2021/06/15 05:05:23;;;;;;;7.97;5.35;;;;;;;15.90;65.58;100898.81;4903431;28;113775;-78
2021/06/15 05:08:14;;;;;;;8.02;5.50;;;;;;;16.37;64.53;100907.94;4886930;28;100025;-77
2021/06/15 05:10:40;;;;;;;6.18;5.20;;;;;;;16.45;64.60;100907.28;4920041;28;97821;-77
2021/06/15 05:13:09;;;;;;;8.18;5.60;;;;;;;16.78;63.48;100904.63;4913601;28;98727;-77
2021/06/15 05:15:35;;;;;;;6.53;5.25;;;;;;;16.95;63.64;100908.69;4889650;28;99950;-77
2021/06/15 05:18:01;;;;;;;6.40;4.95;;;;;;;17.20;62.08;100910.94;4922367;28;97854;-76
2021/06/15 05:20:27;;;;;;;9.35;4.93;;;;;;;17.05;63.01;100922.09;4914686;28;116595;-77
2021/06/15 05:23:08;;;;;;;8.13;5.10;;;;;;;17.47;62.33;100915.59;4910522;28;113552;-77
2021/06/15 05:25:34;;;;;;;8.45;4.93;;;;;;;17.41;61.50;100911.38;4935217;28;100736;-77
2021/06/15 05:28:00;;;;;;;7.45;5.38;;;;;;;17.75;61.16;100907.44;4903239;28;99948;-77
2021/06/15 05:30:28;;;;;;;7.70;4.95;;;;;;;17.53;60.87;100908.94;4905948;28;98130;-76
2021/06/15 05:32:54;;;;;;;9.93;4.80;;;;;;;17.55;61.45;100909.44;4938519;28;98624;-76
2021/06/15 05:35:20;;;;;;;5.88;4.72;;;;;;;17.79;60.90;100919.34;4904695;28;100676;-77
2021/06/15 05:37:47;;;;;;;7.40;5.00;;;;;;;17.99;60.83;100915.38;4918939;28;128168;-77
2021/06/15 05:40:14;;;;;;;7.65;4.30;;;;;;;18.06;60.04;100924.75;4904520;28;99699;-77
2021/06/15 05:42:40;;;;;;;6.53;4.75;;;;;;;18.63;58.59;100919.63;4921259;28;98899;-76
2021/06/15 05:45:08;;;;;;;9.00;4.72;;;;;;;18.61;59.38;100919.13;4904675;28;100338;-77
2021/06/15 05:47:35;;;;;;;7.30;4.80;;;;;;;19.34;57.20;100916.22;4918765;28;98106;-77
2021/06/15 05:50:03;;;;;;;5.15;4.65;;;;;;;19.94;55.48;100912.88;4927744;28;98263;-77
2021/06/15 05:52:30;;;;;;;6.05;4.60;;;;;;;21.09;52.49;100919.56;4937968;28;98351;-77
2021/06/15 05:55:00;;;;;;;5.78;4.43;;;;;;;21.55;50.19;100911.69;4938530;28;98251;-77
2021/06/15 05:57:29;;;;;;;5.15;4.00;;;;;;;22.29;47.97;100916.56;4910032;28;122506;-77
2021/06/15 05:59:56;;;;;;;6.25;4.43;;;;;;;23.80;44.59;100922.50;4920241;28;97824;-76
2021/06/15 06:02:22;;;;;;;6.80;3.70;;;;;;;24.33;43.05;100925.28;4917822;28;99883;-77
2021/06/15 06:09:59;;;;;;;5.10;3.70;;;;;;;26.56;38.45;100938.69;4903815;28;97963;-76
2021/06/15 06:12:25;;;;;;;6.53;3.42;;;;;;;26.15;38.96;100929.94;4909436;28;98767;-77
2021/06/15 06:14:52;;;;;;;4.85;3.40;;;;;;;26.44;38.77;100928.56;4926149;28;128372;-77
2021/06/15 06:17:18;;;;;;;5.00;3.20;;;;;;;28.61;34.77;100936.88;4901605;28;126562;-77
2021/06/15 06:19:45;;;;;;;5.43;3.20;;;;;;;27.94;36.31;100938.72;4919421;28;117350;-77
2021/06/15 06:22:13;;;;;;;5.25;3.22;;;;;;;27.47;36.14;100932.50;4920297;28;98554;-77
2021/06/15 06:24:40;;;;;;;4.68;3.10;;;;;;;27.89;36.64;100940.66;4911392;28;117212;-77
2021/06/15 06:27:06;;;;;;;4.35;3.13;;;;;;;29.64;33.15;100938.25;4884841;28;112914;-78
2021/06/15 06:29:32;;;;;;;5.43;2.95;;;;;;;29.49;32.73;100942.88;4936013;28;107065;-77
2021/06/15 06:31:58;;;;;;;5.35;2.90;;;;;;;28.53;34.09;100945.47;4935199;28;128133;-77
2021/06/15 06:34:27;;;;;;;4.30;3.00;;;;;;;27.90;35.68;100944.22;4924786;28;99943;-77
2021/06/15 06:36:53;;;;;;;5.28;3.10;;;;;;;27.66;37.32;100929.59;4894217;28;105607;-75
2021/06/15 06:39:19;;;;;;;4.88;3.35;;;;;;;27.11;37.67;100934.63;4929947;28;106306;-80
2021/06/15 06:41:45;;;;;;;3.65;2.80;;;;;;;25.94;40.14;100944.09;4926083;28;128158;-80
2021/06/15 06:44:12;;;;;;;4.85;3.15;;;;;;;25.66;40.43;100933.97;4932856;28;125280;-75
2021/06/15 06:46:38;;;;;;;4.72;3.30;;;;;;;27.08;37.74;100942.88;4920320;28;127608;-74
2021/06/15 06:49:04;;;;;;;5.35;3.70;;;;;;;26.86;38.91;100938.91;4905341;28;97774;-79
2021/06/15 06:51:30;;;;;;;5.13;3.60;;;;;;;27.23;38.51;100946.69;4887691;28;127589;-76
2021/06/15 06:53:57;;;;;;;5.25;3.22;;;;;;;26.68;39.00;100938.53;4921973;28;120036;-75
2021/06/15 06:56:23;;;;;;;3.40;3.10;;;;;;;27.20;38.37;100941.91;4923062;28;100230;-79
2021/06/15 06:58:49;;;;;;;4.05;3.00;;;;;;;27.13;38.89;100937.84;4905346;28;98053;-79
2021/06/15 07:01:16;;;;;;;5.82;3.30;;;;;;;27.84;37.61;100940.19;4919966;28;98577;-75
2021/06/15 07:03:42;;;;;;;5.28;3.13;;;;;;;28.53;35.36;100937.16;4888789;28;105176;-74
2021/06/15 07:06:08;;;;;;;3.60;3.05;;;;;;;28.66;34.91;100932.16;4905334;28;98226;-78
2021/06/15 07:08:34;;;;;;;3.97;3.08;;;;;;;28.86;35.52;100931.59;4921547;28;98187;-75
2021/06/15 07:11:00;;;;;;;7.03;2.97;;;;;;;28.47;36.31;100924.81;4926873;28;127767;-75
2021/06/15 07:13:26;;;;;;;6.38;2.83;;;;;;;28.37;36.57;100929.88;4941733;28;127350;-78
2021/06/15 07:15:52;;;;;;;4.00;2.47;;;;;;;27.87;36.55;100931.94;4901304;28;98330;-79
2021/06/15 07:18:18;;;;;;;5.85;3.67;;;;;;;29.08;34.38;100924.31;4921195;28;97896;-75
2021/06/15 07:20:44;;;;;;;6.07;3.17;;;;;;;29.07;34.66;100919.91;4919659;28;128186;-75
2021/06/15 07:23:10;;;;;;;5.47;2.92;;;;;;;28.89;34.73;100918.16;4941736;28;101143;-74
2021/06/15 07:25:36;;;;;;;5.32;2.95;;;;;;;29.33;33.96;100921.72;4940485;28;126176;-77
2021/06/15 07:28:03;;;;;;;5.90;2.85;;;;;;;28.42;35.32;100925.94;4939017;28;97803;-74
2021/06/15 07:30:29;;;;;;;5.15;2.95;;;;;;;27.19;38.58;100924.50;4937025;28;98475;-74
2021/06/15 07:32:58;;;;;;;6.43;2.53;;;;;;;26.92;38.77;100918.88;4932500;28;128426;-74
2021/06/15 07:35:25;;;;;;;5.35;2.60;;;;;;;27.42;38.56;100911.44;4924282;28;97930;-78
2021/06/15 07:37:52;;;;;;;5.38;2.75;;;;;;;27.87;38.94;100911.75;4923599;28;97972;-74
2021/06/15 07:40:22;;;;;;;4.63;2.50;;;;;;;27.32;39.23;100914.84;4924329;28;119907;-77
2021/06/15 07:42:50;;;;;;;4.67;2.60;;;;;;;27.72;38.40;100912.69;4930165;28;98542;-74
2021/06/15 07:45:17;;;;;;;5.78;2.80;;;;;;;27.82;39.34;100909.28;4942782;28;98041;-76
2021/06/15 07:47:43;;;;;;;5.78;2.85;;;;;;;28.49;37.01;100909.41;4942435;28;97785;-76
2021/06/15 07:50:09;;;;;;;3.00;2.33;;;;;;;27.89;37.65;100912.97;4923412;28;120439;-73
2021/06/15 07:52:35;;;;;;;2.90;2.05;;;;;;;28.64;36.75;100910.34;4940505;28;116459;-76
2021/06/15 07:55:01;;;;;;;4.45;2.17;;;;;;;28.20;37.16;100910.19;4940713;28;102707;-76
2021/06/15 07:57:27;;;;;;;5.30;2.70;;;;;;;29.80;34.67;100903.44;4923719;28;98386;-74
2021/06/15 07:59:53;;;;;;;4.00;2.40;;;;;;;31.37;32.96;100902.34;4940353;28;128273;-73
2021/06/15 08:02:19;;;;;;;4.07;2.50;;;;;;;29.55;33.49;100896.88;4921365;28;128080;-76
2021/06/15 08:04:45;;;;;;;4.13;2.38;;;;;;;31.46;31.45;100903.50;4918695;28;100260;-74
2021/06/15 08:07:12;;;;;;;5.03;2.33;;;;;;;32.09;30.22;100908.56;4919581;28;110316;-73
2021/06/15 08:09:38;;;;;;;5.35;2.33;;;;;;;30.58;33.07;100913.34;4921759;28;98638;-76
2021/06/15 08:12:04;;;;;;;5.22;2.60;;;;;;;29.98;34.59;100895.19;4922079;28;119481;-73
2021/06/15 08:14:30;;;;;;;3.33;1.95;;;;;;;31.66;29.79;100898.31;4929577;28;98750;-73
2021/06/15 08:16:56;;;;;;;3.22;2.20;;;;;;;31.21;31.65;100900.72;4929131;28;116822;-73
2021/06/15 08:19:22;;;;;;;3.80;2.28;;;;;;;31.94;31.00;100889.09;4927547;28;98404;-73
2021/06/15 08:21:48;;;;;;;4.95;2.60;;;;;;;32.92;29.35;100892.97;4922752;28;102772;-73
2021/06/15 08:24:15;;;;;;;3.55;2.20;;;;;;;31.82;30.97;100911.78;4922728;28;98079;-76
2021/06/15 08:26:43;;;;;;;3.05;2.33;;;;;;;30.86;32.41;100895.13;4936828;28;98125;-75
2021/06/15 08:29:09;;;;;;;3.55;2.47;;;;;;;32.57;30.12;100903.16;4921419;28;97931;-75
2021/06/15 08:31:35;;;;;;;4.53;2.33;;;;;;;32.73;30.28;100900.66;4930776;28;115537;-75
2021/06/15 08:34:01;;;;;;;4.65;2.63;;;;;;;32.36;30.17;100903.25;4939507;28;126086;-75
2021/06/15 08:36:27;;;;;;;3.70;2.08;;;;;;;32.82;29.04;100899.44;4941349;28;97848;-73
2021/06/15 08:38:53;;;;;;;2.92;2.08;;;;;;;31.89;31.91;100895.09;4937093;28;105305;-73
2021/06/15 08:41:20;;;;;;;4.45;2.13;;;;;;;31.96;30.55;100895.06;4922360;28;98250;-73
2021/06/15 08:43:46;;;;;;;3.47;1.80;;;;;;;31.47;30.94;100895.94;4922828;28;98023;-75
2021/06/15 08:46:13;;;;;;;4.35;1.95;;;;;;;32.66;28.87;100903.53;4941480;28;97970;-73
2021/06/15 08:48:39;;;;;;;3.55;1.90;;;;;;;32.39;30.90;100889.34;4909682;28;107674;-73
2021/06/15 08:51:06;;;;;;;3.60;1.90;;;;;;;32.84;29.74;100891.44;4938978;28;127736;-75
2021/06/15 08:53:36;;;;;;;2.83;1.83;;;;;;;31.99;29.00;100887.88;4939832;28;115049;-75
2021/06/15 08:56:13;;;;;;;3.28;1.80;;;;;;;31.91;31.14;100891.88;4928164;28;97808;-76
2021/06/15 08:58:58;;;;;;;3.53;2.15;;;;;;;32.46;28.94;100891.28;4904441;28;107622;-72
2021/06/15 09:01:24;;;;;;;2.97;1.80;;;;;;;32.11;30.49;100895.81;4920590;28;113794;-72
2021/06/15 09:03:52;;;;;;;2.80;2.10;;;;;;;33.02;28.42;100882.97;4919664;28;98117;-75
2021/06/15 09:06:18;;;;;;;3.60;1.80;;;;;;;32.63;29.51;100893.19;4921389;28;98339;-76
2021/06/15 09:09:00;;;;;;;4.05;1.90;;;;;;;33.92;27.45;100884.47;4918461;28;110795;-74
2021/06/15 09:11:45;;;;;;;3.67;2.00;;;;;;;33.79;27.26;100891.03;4919464;28;99490;-74
2021/06/15 09:14:11;;;;;;;3.10;1.90;;;;;;;33.04;28.04;100878.53;4905272;28;127499;-74
2021/06/15 09:16:37;;;;;;;3.20;1.80;;;;;;;32.45;29.16;100882.13;4918547;28;116765;-72
2021/06/15 09:19:18;;;;;;;3.40;1.90;;;;;;;31.09;30.38;100880.81;4919666;28;126722;-74
2021/06/15 09:21:48;;;;;;;4.10;1.80;;;;;;;30.46;31.79;100870.00;4922906;28;98908;-74
2021/06/15 09:24:22;;;;;;;4.20;1.90;;;;;;;31.98;30.95;100877.94;4911034;28;99065;-74
2021/06/15 09:27:05;;;;;;;4.15;2.05;;;;;;;32.43;30.61;100878.97;4936292;28;98800;-74
2021/06/15 09:29:52;;;;;;;2.72;1.70;;;;;;;33.02;29.43;100888.56;4921528;28;98874;-73
2021/06/15 09:32:26;;;;;;;4.18;1.85;;;;;;;33.44;28.93;100888.16;4920880;28;98557;-70
2021/06/15 09:34:56;;;;;;;3.47;1.60;;;;;;;31.91;29.85;100889.09;4925537;28;97954;-72
2021/06/15 09:37:41;;;;;;;3.40;1.60;;;;;;;32.77;28.76;100892.28;4939658;28;98073;-72
2021/06/15 09:40:11;;;;;;;5.80;2.08;;;;;;;33.50;27.63;100891.34;4939422;28;98796;-72
2021/06/15 09:42:59;;;;;;;3.05;1.90;;;;;;;32.29;29.37;100889.34;4940106;28;98697;-70
2021/06/15 09:45:30;;;;;;;3.75;1.92;;;;;;;32.50;28.96;100892.03;4939740;28;98674;-73
2021/06/15 09:48:36;;;;;;;3.33;2.10;;;;;;;32.29;30.21;100881.78;4940548;28;98031;-72
2021/06/15 09:51:11;;;;;;;4.97;2.60;;;;;;;32.65;28.36;100881.59;4926720;28;98347;-72
2021/06/15 09:53:46;;;;;;;5.20;2.50;;;;;;;32.41;29.69;100878.56;4926683;28;98811;-69
2021/06/15 09:56:14;;;;;;;4.82;2.30;;;;;;;32.47;30.61;100882.50;4918459;28;98169;-70
2021/06/15 09:58:45;;;;;;;3.00;2.00;;;;;;;34.02;27.08;100879.19;4921207;28;97852;-69
2021/06/15 10:01:26;;;;;;;5.40;2.00;;;;;;;32.64;28.81;100878.03;4938827;28;98746;-70
2021/06/15 10:04:12;;;;;;;3.77;2.23;;;;;;;33.38;28.77;100875.06;4940337;28;98115;-74
2021/06/15 10:06:45;;;;;;;5.20;2.67;;;;;;;34.40;27.14;100891.09;4919216;28;98265;-72
2021/06/15 10:09:11;;;;;;;4.50;2.40;;;;;;;34.43;26.35;100884.66;4923661;28;98145;-72
2021/06/15 10:11:37;;;;;;;5.55;2.42;;;;;;;33.81;27.51;100883.81;4936441;28;98618;-72
2021/06/15 10:14:04;;;;;;;5.43;2.20;;;;;;;35.50;25.27;100880.19;4941239;28;98888;-70
2021/06/15 10:16:31;;;;;;;3.78;2.05;;;;;;;35.28;25.54;100879.75;4939013;28;127454;-70
2021/06/15 10:19:00;;;;;;;5.20;2.00;;;;;;;36.18;24.60;100878.03;4942706;28;97998;-73
2021/06/15 10:21:27;;;;;;;4.00;2.13;;;;;;;36.50;22.56;100874.56;4909918;28;98031;-70
2021/06/15 10:23:53;;;;;;;3.80;2.00;;;;;;;36.79;22.33;100875.47;4935365;28;99139;-73
2021/06/15 10:26:19;;;;;;;3.42;1.85;;;;;;;35.56;24.02;100861.63;4942446;28;114482;-70
2021/06/15 10:28:45;;;;;;;4.70;1.90;;;;;;;35.78;25.11;100856.41;4942537;28;97942;-70
2021/06/15 10:31:11;;;;;;;2.50;1.90;;;;;;;34.24;25.10;100857.34;4931292;28;125687;-70
2021/06/15 10:33:42;;;;;;;4.22;1.85;;;;;;;34.20;25.57;100844.22;4888436;28;126573;-72
2021/06/15 10:36:08;;;;;;;3.75;1.90;;;;;;;33.83;24.99;100847.84;4907485;28;98114;-72
2021/06/15 10:38:46;;;;;;;4.15;1.80;;;;;;;32.88;27.35;100847.56;4922186;28;118666;-70
2021/06/15 10:41:24;;;;;;;3.20;1.83;;;;;;;33.01;27.36;100845.06;4921973;28;98560;-70
2021/06/15 10:43:54;;;;;;;3.92;1.92;;;;;;;35.60;24.13;100851.16;4917156;28;99154;-70
2021/06/15 10:46:20;;;;;;;4.07;1.83;;;;;;;34.43;25.37;100856.69;4941054;28;103316;-70
2021/06/15 10:48:47;;;;;;;3.47;1.65;;;;;;;34.17;23.89;100853.44;4936254;28;97791;-71
2021/06/15 10:51:42;;;;;;;3.13;1.80;;;;;;;33.53;25.17;100843.03;4934564;28;101536;-70
2021/06/15 10:54:38;;;;;;;3.33;1.90;;;;;;;32.91;25.88;100838.38;4942964;28;99313;-70
2021/06/15 10:57:30;;;;;;;2.90;2.03;;;;;;;33.22;26.15;100842.09;4942308;28;98066;-70
2021/06/15 11:00:01;;;;;;;4.07;1.90;;;;;;;34.56;24.53;100842.94;4942758;28;97758;-70
2021/06/15 11:02:29;;;;;;;3.38;2.00;;;;;;;33.79;25.48;100833.13;4942134;28;98941;-70
2021/06/15 11:04:55;;;;;;;3.08;1.90;;;;;;;34.23;24.84;100825.00;4941995;28;99325;-69
2021/06/15 11:07:35;;;;;;;4.07;1.92;;;;;;;34.05;25.92;100834.44;4923771;28;98899;-70
2021/06/15 11:10:02;;;;;;;3.70;1.90;;;;;;;34.46;25.67;100833.44;4942490;28;98098;-74
2021/06/15 11:12:29;;;;;;;3.75;1.88;;;;;;;35.16;24.23;100833.53;4939397;28;116211;-73
2021/06/15 11:15:27;;;;;;;4.47;2.08;;;;;;;35.94;22.41;100830.44;4942368;28;98429;-73
2021/06/15 11:17:57;;;;;;;2.67;2.05;;;;;;;35.36;22.74;100822.38;4891857;28;127322;-70
2021/06/15 11:20:34;;;;;;;4.03;1.95;;;;;;;34.50;23.46;100823.03;4906223;28;98237;-73
2021/06/15 11:23:24;;;;;;;4.32;1.98;;;;;;;34.17;23.15;100821.88;4920498;28;98007;-72
2021/06/15 11:26:05;;;;;;;3.38;1.80;;;;;;;34.81;23.55;100814.53;4922381;28;98888;-73
2021/06/15 11:28:39;;;;;;;3.38;2.05;;;;;;;34.23;24.20;100811.00;4903531;28;100375;-72
2021/06/15 11:31:17;;;;;;;3.58;2.05;;;;;;;33.87;25.03;100805.88;4921629;28;98420;-69
2021/06/15 11:34:17;;;;;;;3.08;1.92;;;;;;;33.83;24.36;100799.53;4921936;28;98464;-70
2021/06/15 11:36:55;;;;;;;3.42;2.10;;;;;;;34.03;24.69;100800.50;4923979;28;98959;-72
2021/06/15 11:42:09;;;;;;;3.22;1.90;;;;;;;32.83;25.52;100792.19;4920037;28;97963;-69
2021/06/15 11:45:08;;;;;;;3.35;1.92;;;;;;;33.08;25.90;100795.56;4924260;28;98148;-69